Time;durP1;ratioP1;P1;durP2;ratioP2;P2;SDS_P1;SDS_P2;PMS_P1;PMS_P2;Temp;Humidity;BMP_temperature;BMP_pressure;BME280_temperature;BME280_humidity;BME280_pressure;Samples;Min_cycle;Max_cycle;Signal;HPM_P1;HPM_P2
2024/03/29 00:01:34;;;;;;;6.17;1.20;;;10.10;1.00;;;;;;5046356;28;37075;-78
2024/03/29 00:04:00;;;;;;;7.40;0.90;;;10.10;1.00;;;;;;5051302;28;37900;-78
2024/03/29 00:06:26;;;;;;;10.73;1.30;;;10.10;1.00;;;;;;5047875;28;47967;-77
2024/03/29 00:08:52;;;;;;;10.00;1.67;;;10.10;1.00;;;;;;5043850;28;40021;-76
2024/03/29 00:11:18;;;;;;;10.23;1.80;;;10.10;1.00;;;;;;5046942;28;36578;-76
2024/03/29 00:13:45;;;;;;;6.97;1.40;;;10.20;1.00;;;;;;5046064;28;37007;-77
2024/03/29 00:16:11;;;;;;;6.70;1.73;;;10.10;99.90;;;;;;5048859;28;39651;-76
2024/03/29 00:18:38;;;;;;;8.10;1.50;;;10.20;99.90;;;;;;5047651;28;39284;-76
2024/03/29 00:21:04;;;;;;;8.63;1.30;;;10.20;99.90;;;;;;5047044;28;38163;-77
2024/03/29 00:23:30;;;;;;;10.50;1.60;;;10.10;99.90;;;;;;5045491;28;37632;-76
2024/03/29 00:25:58;;;;;;;8.83;1.50;;;10.20;99.90;;;;;;5045376;28;39591;-76
2024/03/29 00:28:24;;;;;;;9.27;1.40;;;10.20;99.90;;;;;;5052104;28;38575;-76
2024/03/29 00:30:50;;;;;;;5.50;1.30;;;10.20;99.90;;;;;;5052710;28;37996;-77
2024/03/29 00:33:16;;;;;;;11.87;1.50;;;10.10;99.90;;;;;;5047042;28;37478;-75
2024/03/29 00:35:45;;;;;;;6.30;1.23;;;10.10;99.90;;;;;;5050117;28;40428;-77
2024/03/29 00:38:11;;;;;;;7.30;1.23;;;10.10;99.90;;;;;;5051940;28;39106;-77
2024/03/29 00:40:37;;;;;;;5.17;1.60;;;10.20;99.90;;;;;;5046812;28;38908;-76
2024/03/29 00:43:04;;;;;;;9.40;1.20;;;10.20;99.90;;;;;;5039953;28;35854;-77
2024/03/29 00:45:30;;;;;;;7.67;1.93;;;10.20;99.90;;;;;;5047872;28;40802;-76
2024/03/29 00:47:56;;;;;;;6.63;1.40;;;10.20;1.00;;;;;;5050216;28;38681;-78
2024/03/29 00:50:22;;;;;;;7.60;1.33;;;10.10;99.90;;;;;;5052205;28;37527;-77
2024/03/29 00:52:48;;;;;;;8.37;1.50;;;10.10;99.90;;;;;;5047096;28;37760;-76
2024/03/29 00:55:15;;;;;;;6.10;1.03;;;10.20;99.90;;;;;;5044950;28;38669;-76
2024/03/29 00:57:41;;;;;;;10.83;2.10;;;10.10;1.00;;;;;;5042092;28;38817;-77
2024/03/29 01:00:09;;;;;;;11.20;1.83;;;10.10;1.00;;;;;;5045603;28;39061;-77
2024/03/29 01:02:36;;;;;;;7.63;1.43;;;10.10;1.00;;;;;;5040598;28;37451;-77
2024/03/29 01:05:02;;;;;;;4.50;1.10;;;10.10;1.00;;;;;;5040841;28;38926;-77
2024/03/29 01:07:29;;;;;;;7.83;1.17;;;10.20;99.90;;;;;;5055027;28;37628;-76
2024/03/29 01:09:55;;;;;;;7.53;1.30;;;10.20;99.90;;;;;;5047395;28;38529;-77
2024/03/29 01:12:21;;;;;;;7.57;1.30;;;10.20;99.90;;;;;;5045469;28;37667;-77
2024/03/29 01:14:47;;;;;;;12.23;2.03;;;10.10;99.90;;;;;;5045754;28;39168;-77
2024/03/29 01:17:13;;;;;;;7.70;1.17;;;10.00;1.00;;;;;;5042514;28;38488;-77
2024/03/29 01:19:39;;;;;;;5.70;1.37;;;10.10;1.00;;;;;;5045814;28;38840;-77
2024/03/29 01:22:05;;;;;;;7.67;1.73;;;10.10;1.00;;;;;;5048287;28;38218;-77
2024/03/29 01:24:31;;;;;;;13.23;2.13;;;10.10;99.90;;;;;;5044537;28;39910;-76
2024/03/29 01:26:58;;;;;;;5.80;1.20;;;10.10;99.90;;;;;;5047704;28;38188;-76
2024/03/29 01:29:25;;;;;;;5.77;1.63;;;10.10;99.90;;;;;;5043942;28;39073;-77
2024/03/29 01:31:51;;;;;;;7.63;1.43;;;10.10;1.00;;;;;;5042530;28;38341;-77
2024/03/29 01:34:17;;;;;;;9.20;1.47;;;10.10;1.00;;;;;;5041318;28;40826;-77
2024/03/29 01:36:43;;;;;;;6.83;1.10;;;10.00;1.00;;;;;;5043052;28;38752;-78
2024/03/29 01:39:14;;;;;;;7.27;1.30;;;10.00;99.90;;;;;;5040300;28;39669;-76
2024/03/29 01:41:40;;;;;;;7.23;1.70;;;10.10;99.90;;;;;;5040910;28;38228;-77
2024/03/29 01:44:06;;;;;;;8.60;1.70;;;10.00;99.90;;;;;;5042542;28;40333;-77
2024/03/29 01:46:36;;;;;;;4.70;1.00;;;10.00;99.90;;;;;;5045616;28;39693;-76
2024/03/29 01:49:03;;;;;;;7.60;1.13;;;10.00;99.90;;;;;;5058592;28;39870;-76
2024/03/29 01:51:30;;;;;;;8.17;1.57;;;9.90;99.90;;;;;;5046709;28;37168;-77
2024/03/29 01:53:56;;;;;;;9.53;1.63;;;9.90;99.90;;;;;;5047795;28;39460;-75
2024/03/29 01:56:23;;;;;;;6.27;1.40;;;10.00;99.90;;;;;;5037694;28;38260;-77
2024/03/29 01:58:51;;;;;;;8.10;1.50;;;10.00;99.90;;;;;;5045497;28;38401;-77
2024/03/29 02:03:54;;;;;;;7.60;1.30;;;10.00;99.90;;;;;;5081627;23;20037;-78
2024/03/29 02:06:20;;;;;;;6.67;1.30;;;9.90;99.90;;;;;;5044731;28;39368;-76
2024/03/29 02:08:51;;;;;;;7.87;1.73;;;9.90;99.90;;;;;;5048167;28;39709;-77
2024/03/29 02:11:17;;;;;;;7.70;1.37;;;10.00;99.90;;;;;;5065315;28;36147;-76
2024/03/29 02:13:44;;;;;;;9.20;2.03;;;9.90;99.90;;;;;;5046811;28;38634;-76
2024/03/29 02:16:11;;;;;;;5.63;1.03;;;9.90;99.90;;;;;;5051531;28;39226;-76
2024/03/29 02:18:37;;;;;;;7.63;1.50;;;9.90;99.90;;;;;;5045764;28;38857;-76
2024/03/29 02:21:03;;;;;;;7.33;1.67;;;9.90;99.90;;;;;;5044659;28;37849;-77
2024/03/29 02:23:32;;;;;;;5.73;1.13;;;10.00;99.90;;;;;;5045327;28;38337;-77
2024/03/29 02:25:58;;;;;;;7.63;1.30;;;10.00;99.90;;;;;;5043406;28;37664;-76
2024/03/29 02:28:25;;;;;;;11.77;1.43;;;9.90;99.90;;;;;;5043779;28;39105;-75
2024/03/29 02:30:51;;;;;;;7.60;1.43;;;9.90;99.90;;;;;;5051759;28;36084;-76
2024/03/29 02:33:17;;;;;;;6.33;1.40;;;10.00;99.90;;;;;;5049558;28;39239;-76
2024/03/29 02:35:43;;;;;;;9.67;1.47;;;10.00;99.90;;;;;;5046054;28;38586;-76
2024/03/29 02:38:10;;;;;;;4.73;1.10;;;10.00;99.90;;;;;;5042642;28;38798;-77
2024/03/29 02:40:36;;;;;;;5.17;1.20;;;10.00;99.90;;;;;;5046462;28;37292;-77
2024/03/29 02:43:02;;;;;;;13.40;1.50;;;10.10;99.90;;;;;;5044529;28;38531;-77
2024/03/29 02:45:28;;;;;;;4.60;1.20;;;10.00;99.90;;;;;;5045394;28;38387;-76
2024/03/29 02:47:54;;;;;;;5.83;1.00;;;10.00;99.90;;;;;;5051543;28;38628;-76
2024/03/29 02:50:20;;;;;;;8.53;1.03;;;10.00;99.90;;;;;;5052408;28;37204;-76
2024/03/29 02:52:46;;;;;;;6.70;1.40;;;10.00;99.90;;;;;;5046334;28;39641;-76
2024/03/29 02:55:13;;;;;;;6.20;0.93;;;10.00;99.90;;;;;;5038325;28;39027;-75
2024/03/29 02:57:39;;;;;;;9.10;1.33;;;10.10;1.20;;;;;;5045163;28;38831;-76
2024/03/29 03:00:07;;;;;;;3.57;1.20;;;10.10;6.50;;;;;;5048014;28;37290;-77
2024/03/29 03:02:40;;;;;;;5.40;0.80;;;10.10;93.40;;;;;;5045624;28;38674;-77
2024/03/29 03:05:08;;;;;;;4.90;1.50;;;10.00;99.90;;;;;;5045939;28;40298;-76
2024/03/29 03:13:05;;;;;;;5.00;0.70;;;10.00;99.90;;;;;;5045033;28;38963;-76
2024/03/29 03:15:31;;;;;;;2.27;0.70;;;10.10;99.90;;;;;;5048652;28;38670;-76
2024/03/29 03:17:57;;;;;;;4.90;0.80;;;10.00;99.90;;;;;;5038856;28;38547;-76
2024/03/29 03:20:27;;;;;;;4.47;0.80;;;10.00;99.90;;;;;;5042540;28;37009;-76
2024/03/29 03:22:55;;;;;;;3.60;0.90;;;9.90;99.90;;;;;;5053396;28;39604;-77
2024/03/29 03:25:21;;;;;;;2.17;0.70;;;10.00;99.90;;;;;;5046097;28;37159;-75
2024/03/29 03:27:48;;;;;;;5.07;0.60;;;10.10;99.90;;;;;;5045181;28;38778;-77
2024/03/29 03:30:15;;;;;;;3.40;0.77;;;10.00;99.90;;;;;;5042671;28;38132;-76
2024/03/29 03:32:41;;;;;;;4.73;0.60;;;10.00;99.90;;;;;;5047799;28;38774;-76
2024/03/29 03:35:08;;;;;;;4.47;0.83;;;10.00;99.90;;;;;;5048502;28;39234;-76
2024/03/29 03:37:34;;;;;;;4.50;0.70;;;10.00;99.90;;;;;;5050779;28;38172;-76
2024/03/29 03:40:01;;;;;;;4.80;0.70;;;10.00;99.90;;;;;;5055675;28;37316;-76
2024/03/29 03:42:27;;;;;;;2.87;0.70;;;10.00;99.90;;;;;;5047455;28;37372;-76
2024/03/29 03:44:53;;;;;;;3.60;0.83;;;10.00;99.90;;;;;;5052529;28;38669;-78
2024/03/29 03:47:19;;;;;;;5.23;0.90;;;10.00;99.90;;;;;;5047376;28;37608;-76
2024/03/29 03:49:45;;;;;;;6.13;0.63;;;10.00;99.90;;;;;;5049825;28;37554;-76
2024/03/29 03:52:11;;;;;;;3.10;0.67;;;9.90;99.90;;;;;;5049786;28;39455;-76
2024/03/29 03:54:37;;;;;;;3.73;0.67;;;9.90;99.90;;;;;;5054212;28;39251;-76
2024/03/29 03:57:04;;;;;;;4.30;0.90;;;9.90;99.90;;;;;;5049969;28;37080;-76
2024/03/29 03:59:30;;;;;;;2.53;0.80;;;9.90;99.90;;;;;;5051382;28;37985;-77
2024/03/29 04:01:56;;;;;;;2.70;0.80;;;9.90;99.90;;;;;;5046456;28;37138;-77
2024/03/29 04:04:23;;;;;;;0.93;0.50;;;9.90;99.90;;;;;;5054924;28;37411;-77
2024/03/29 04:06:49;;;;;;;2.40;0.70;;;9.90;99.90;;;;;;5054420;28;37620;-76
2024/03/29 04:09:16;;;;;;;3.97;0.53;;;9.90;99.90;;;;;;5048828;28;36502;-75
2024/03/29 04:11:43;;;;;;;1.77;0.50;;;9.80;99.90;;;;;;5049110;28;38523;-77
2024/03/29 04:14:09;;;;;;;2.50;0.53;;;9.80;99.90;;;;;;5054153;28;38879;-76
2024/03/29 04:16:35;;;;;;;2.27;0.40;;;9.80;99.90;;;;;;5048311;28;38693;-75
2024/03/29 04:19:01;;;;;;;1.90;0.33;;;9.80;99.90;;;;;;5043969;28;39069;-76
2024/03/29 04:21:28;;;;;;;2.40;0.50;;;9.80;1.00;;;;;;5045136;28;37685;-77
2024/03/29 04:23:54;;;;;;;2.33;0.67;;;9.80;1.00;;;;;;5050270;28;38851;-75
2024/03/29 04:26:20;;;;;;;2.83;0.40;;;9.70;1.00;;;;;;5053254;28;38724;-75
2024/03/29 04:28:46;;;;;;;1.80;0.60;;;9.70;1.00;;;;;;5052872;28;39010;-76
2024/03/29 04:31:12;;;;;;;2.17;0.30;;;9.70;1.00;;;;;;5048325;28;39864;-75
2024/03/29 04:33:38;;;;;;;1.10;0.47;;;9.70;1.00;;;;;;5050014;28;37934;-75
2024/03/29 04:36:04;;;;;;;2.20;0.50;;;9.60;1.00;;;;;;5044305;28;38686;-75
2024/03/29 04:38:31;;;;;;;3.90;0.50;;;9.60;1.00;;;;;;5052869;28;37917;-77
2024/03/29 04:40:58;;;;;;;1.73;0.60;;;9.60;1.00;;;;;;5055370;28;39226;-75
2024/03/29 04:43:25;;;;;;;0.83;0.40;;;9.50;1.00;;;;;;5055781;28;38687;-76
2024/03/29 04:46:05;;;;;;;2.97;0.50;;;9.50;1.00;;;;;;5060268;28;40599;-76
2024/03/29 04:48:32;;;;;;;1.43;0.50;;;9.40;1.00;;;;;;5048740;28;46969;-76
2024/03/29 04:50:58;;;;;;;2.83;0.50;;;9.40;1.00;;;;;;5052289;28;39494;-76
2024/03/29 04:53:24;;;;;;;2.87;0.47;;;9.30;1.00;;;;;;5058607;28;36977;-75
2024/03/29 04:55:54;;;;;;;1.27;0.40;;;9.30;1.00;;;;;;5051398;28;36688;-76
2024/03/29 04:58:22;;;;;;;2.20;0.57;;;9.20;1.00;;;;;;5052865;28;36489;-76
2024/03/29 05:00:49;;;;;;;2.00;0.30;;;9.20;1.00;;;;;;5053729;28;39894;-75
2024/03/29 05:03:19;;;;;;;1.83;0.43;;;9.20;1.00;;;;;;5054394;28;38875;-76
2024/03/29 05:05:46;;;;;;;2.40;0.60;;;9.10;1.00;;;;;;5054862;28;39738;-75
2024/03/29 05:08:13;;;;;;;1.07;0.40;;;9.10;1.00;;;;;;5053684;28;37711;-78
2024/03/29 05:10:43;;;;;;;1.67;0.30;;;9.00;1.00;;;;;;5050788;28;38700;-75
2024/03/29 05:13:09;;;;;;;1.50;0.40;;;9.00;1.00;;;;;;5043915;28;39100;-77
2024/03/29 05:15:35;;;;;;;2.00;0.40;;;8.90;1.00;;;;;;5054218;28;37634;-76
2024/03/29 05:18:01;;;;;;;3.30;0.60;;;8.90;1.00;;;;;;5046797;28;37301;-76
2024/03/29 05:20:27;;;;;;;3.93;0.60;;;8.80;1.00;;;;;;5056794;28;40399;-75
2024/03/29 05:22:53;;;;;;;1.23;0.50;;;8.70;1.00;;;;;;5051264;28;38874;-76
2024/03/29 05:25:19;;;;;;;4.17;0.80;;;8.60;1.00;;;;;;5050642;28;36726;-75
2024/03/29 05:27:46;;;;;;;2.53;0.80;;;8.60;1.00;;;;;;5052881;28;36393;-75
2024/03/29 05:30:13;;;;;;;1.50;0.60;;;8.60;1.00;;;;;;5051664;28;40683;-76
2024/03/29 05:32:39;;;;;;;2.27;0.70;;;8.50;1.00;;;;;;5048417;28;38868;-77
2024/03/29 05:35:06;;;;;;;2.47;0.70;;;8.50;1.00;;;;;;5051856;28;39147;-77
2024/03/29 05:37:32;;;;;;;2.07;0.73;;;8.50;1.00;;;;;;5047047;28;36000;-75
2024/03/29 05:40:03;;;;;;;1.87;0.57;;;8.50;1.00;;;;;;5050174;28;40428;-76
2024/03/29 05:42:31;;;;;;;6.20;1.10;;;8.50;1.00;;;;;;5043789;28;39645;-76
2024/03/29 05:44:57;;;;;;;2.63;0.50;;;8.50;1.00;;;;;;5051149;28;39845;-76
2024/03/29 05:47:23;;;;;;;4.50;1.00;;;8.50;1.00;;;;;;5045063;28;39451;-76
2024/03/29 05:49:50;;;;;;;2.10;1.10;;;8.50;1.00;;;;;;5048607;28;39775;-76
2024/03/29 05:52:17;;;;;;;3.50;1.10;;;8.50;2.20;;;;;;5046332;28;38726;-75
2024/03/29 05:54:44;;;;;;;2.13;0.63;;;8.50;5.70;;;;;;5048631;28;38277;-75
2024/03/29 05:57:11;;;;;;;2.17;0.67;;;8.50;8.70;;;;;;5051522;28;38001;-75
2024/03/29 05:59:38;;;;;;;2.73;0.70;;;8.50;13.40;;;;;;5055924;28;39675;-76
2024/03/29 06:02:05;;;;;;;2.77;0.70;;;8.40;14.90;;;;;;5050463;28;40005;-76
2024/03/29 06:04:35;;;;;;;4.60;0.90;;;8.40;19.70;;;;;;5047547;28;38379;-75
2024/03/29 06:07:03;;;;;;;4.93;0.70;;;8.40;24.60;;;;;;5039824;28;37518;-75
2024/03/29 06:09:29;;;;;;;4.50;0.70;;;8.40;27.90;;;;;;5051010;28;49156;-76
2024/03/29 06:11:57;;;;;;;2.57;0.80;;;8.40;32.60;;;;;;5044433;28;37511;-75
2024/03/29 06:17:24;;;;;;;3.33;0.90;;;8.40;43.10;;;;;;5025250;28;37350;-77
2024/03/29 06:19:56;;;;;;;1.85;0.60;;;8.40;47.10;;;;;;5023248;28;38864;-77
2024/03/29 06:22:23;;;;;;;2.00;0.63;;;8.40;53.50;;;;;;5039132;28;37450;-77
2024/03/29 06:24:53;;;;;;;2.90;0.80;;;8.40;57.60;;;;;;5028371;28;38029;-76
2024/03/29 06:27:22;;;;;;;3.17;1.07;;;8.40;58.70;;;;;;5022578;28;36275;-77
2024/03/29 06:29:49;;;;;;;2.17;0.80;;;8.30;65.90;;;;;;5048151;28;38147;-78
2024/03/29 06:32:17;;;;;;;5.53;1.00;;;8.40;67.40;;;;;;5035896;28;37364;-77
2024/03/29 06:34:47;;;;;;;3.40;1.37;;;8.30;70.30;;;;;;5044734;28;37207;-77
2024/03/29 06:37:14;;;;;;;4.03;1.00;;;8.40;72.90;;;;;;5024542;28;36066;-77
2024/03/29 06:39:41;;;;;;;1.97;0.70;;;8.40;76.10;;;;;;5038919;28;37587;-77
2024/03/29 06:42:08;;;;;;;1.77;0.67;;;8.40;72.60;;;;;;5021220;28;38065;-76
2024/03/29 06:44:34;;;;;;;2.47;0.70;;;8.40;70.80;;;;;;5023994;28;38289;-77
2024/03/29 06:47:00;;;;;;;2.77;0.63;;;8.40;70.60;;;;;;5042367;28;37371;-76
2024/03/29 06:49:27;;;;;;;3.93;0.70;;;8.50;72.30;;;;;;5046468;28;39637;-76
2024/03/29 06:51:53;;;;;;;2.27;1.03;;;8.60;64.60;;;;;;5031715;28;37150;-76
2024/03/29 06:54:22;;;;;;;4.17;1.00;;;8.60;54.20;;;;;;5045151;28;38327;-76
2024/03/29 06:56:49;;;;;;;3.20;0.80;;;8.60;49.80;;;;;;5043602;28;36680;-76
2024/03/29 06:59:15;;;;;;;2.00;0.77;;;8.60;48.70;;;;;;5043641;28;39191;-76
2024/03/29 07:01:41;;;;;;;2.97;0.90;;;8.70;47.90;;;;;;5023418;28;39440;-76
2024/03/29 07:04:07;;;;;;;3.53;1.07;;;8.70;45.60;;;;;;5044619;28;36821;-76
2024/03/29 07:06:33;;;;;;;1.57;0.93;;;8.70;40.10;;;;;;5017433;28;36382;-76
2024/03/29 07:08:59;;;;;;;3.93;1.07;;;8.60;48.40;;;;;;5042983;28;39090;-75
2024/03/29 07:11:26;;;;;;;2.70;1.10;;;8.60;48.70;;;;;;5026568;28;37084;-76
2024/03/29 07:13:52;;;;;;;2.93;1.20;;;8.70;46.00;;;;;;5040895;28;37648;-75
2024/03/29 07:16:18;;;;;;;3.87;1.40;;;8.70;44.90;;;;;;5035677;28;36969;-76
2024/03/29 07:18:44;;;;;;;4.17;1.43;;;8.80;39.60;;;;;;5027413;28;39001;-76
2024/03/29 07:21:10;;;;;;;2.70;1.20;;;8.80;40.30;;;;;;5038278;28;39028;-75
2024/03/29 07:23:37;;;;;;;3.00;1.40;;;8.80;33.20;;;;;;5045093;28;36604;-76
2024/03/29 07:26:05;;;;;;;5.57;2.53;;;8.80;31.30;;;;;;5025834;28;36146;-75
2024/03/29 07:28:31;;;;;;;4.27;2.27;;;8.80;30.30;;;;;;5028559;28;38743;-76
2024/03/29 07:30:57;;;;;;;4.37;1.97;;;8.80;29.40;;;;;;5042775;28;36392;-75
2024/03/29 07:33:28;;;;;;;5.17;2.47;;;8.80;32.10;;;;;;5027615;28;38098;-76
2024/03/29 07:35:55;;;;;;;3.73;2.40;;;8.80;29.20;;;;;;5036901;28;37859;-75
2024/03/29 07:38:24;;;;;;;6.97;2.40;;;8.80;27.50;;;;;;5036047;28;39713;-75
2024/03/29 07:40:51;;;;;;;4.80;2.47;;;8.80;35.00;;;;;;5022159;28;38150;-76
2024/03/29 07:43:18;;;;;;;3.13;2.63;;;8.90;28.70;;;;;;5020823;28;38039;-76
2024/03/29 07:45:45;;;;;;;3.53;2.43;;;9.00;22.70;;;;;;5037550;28;38239;-76
2024/03/29 07:48:13;;;;;;;5.43;2.70;;;9.20;19.40;;;;;;5038725;28;38420;-75
2024/03/29 07:50:40;;;;;;;2.93;2.60;;;9.30;11.10;;;;;;5027659;28;38632;-76
2024/03/29 07:53:07;;;;;;;4.77;2.30;;;9.40;2.20;;;;;;5021704;28;37413;-76
2024/03/29 07:55:35;;;;;;;5.23;2.77;;;9.40;1.00;;;;;;5019952;28;38350;-76
2024/03/29 07:58:02;;;;;;;5.27;2.90;;;9.30;1.00;;;;;;5016996;28;39584;-76
2024/03/29 08:00:31;;;;;;;3.17;2.60;;;9.20;5.10;;;;;;5017461;28;46982;-75
2024/03/29 08:02:58;;;;;;;7.07;3.07;;;9.20;7.20;;;;;;5031102;28;38609;-76
2024/03/29 08:05:24;;;;;;;5.50;3.03;;;9.30;3.30;;;;;;5035919;28;38872;-76
2024/03/29 08:07:50;;;;;;;5.80;2.80;;;9.20;6.00;;;;;;5025570;28;41240;-75
2024/03/29 08:10:16;;;;;;;4.20;2.27;;;9.20;4.90;;;;;;5020576;28;38414;-75
2024/03/29 08:12:42;;;;;;;2.90;2.10;;;9.30;5.20;;;;;;5028507;28;38088;-75
2024/03/29 08:15:08;;;;;;;3.00;2.00;;;9.40;1.00;;;;;;5025100;28;38772;-75
2024/03/29 08:17:36;;;;;;;2.07;1.67;;;9.40;1.00;;;;;;5019528;28;39227;-75
2024/03/29 08:20:03;;;;;;;3.63;1.73;;;9.50;1.00;;;;;;5022133;28;38246;-75
2024/03/29 08:22:29;;;;;;;5.57;1.83;;;9.60;1.00;;;;;;5020894;28;37871;-75
2024/03/29 08:24:55;;;;;;;2.58;1.38;;;9.70;1.00;;;;;;5044532;28;37435;-74
2024/03/29 08:27:21;;;;;;;1.83;1.30;;;9.80;1.00;;;;;;5016478;28;39613;-76
2024/03/29 08:29:50;;;;;;;2.63;1.65;;;9.80;1.00;;;;;;5040658;28;37374;-75
2024/03/29 08:32:16;;;;;;;2.85;1.80;;;9.80;1.00;;;;;;5036223;28;37172;-76
2024/03/29 08:34:42;;;;;;;3.92;1.55;;;9.90;1.00;;;;;;5040436;28;37261;-75
2024/03/29 08:37:08;;;;;;;3.92;1.40;;;9.90;1.00;;;;;;5029147;28;38862;-75
2024/03/29 08:39:37;;;;;;;3.20;1.00;;;10.00;1.00;;;;;;5029756;28;39276;-75
2024/03/29 08:42:08;;;;;;;2.63;1.10;;;10.00;1.00;;;;;;5044734;28;38902;-75
2024/03/29 08:44:35;;;;;;;1.58;0.95;;;10.00;1.00;;;;;;5041701;28;37860;-75
2024/03/29 08:47:02;;;;;;;1.30;1.10;;;10.00;1.00;;;;;;5026473;28;39086;-75
2024/03/29 08:49:29;;;;;;;2.17;1.02;;;10.00;1.00;;;;;;5038544;28;47153;-75
2024/03/29 08:52:00;;;;;;;2.47;1.20;;;10.30;1.00;;;;;;5028572;28;36921;-75
2024/03/29 08:54:27;;;;;;;2.20;0.90;;;10.60;1.00;;;;;;5040413;28;36279;-75
2024/03/29 08:56:54;;;;;;;3.13;1.10;;;10.60;1.00;;;;;;5038009;28;37647;-75
2024/03/29 08:59:20;;;;;;;1.00;0.82;;;10.60;1.00;;;;;;5028261;28;39030;-75
2024/03/29 09:01:49;;;;;;;1.95;0.90;;;10.80;1.00;;;;;;5042125;28;38316;-75
2024/03/29 09:04:15;;;;;;;5.07;1.02;;;10.70;1.00;;;;;;5027433;28;36198;-78
2024/03/29 09:06:42;;;;;;;1.02;0.70;;;10.80;1.00;;;;;;5051993;28;39137;-78
2024/03/29 09:09:09;;;;;;;1.80;0.70;;;10.70;1.00;;;;;;5031154;28;37225;-78
2024/03/29 09:11:36;;;;;;;1.13;0.70;;;10.60;1.00;;;;;;5035333;28;39018;-79
2024/03/29 09:14:04;;;;;;;4.20;0.95;;;10.80;1.00;;;;;;5046109;28;37701;-78
2024/03/29 09:16:30;;;;;;;0.60;0.60;;;10.90;1.00;;;;;;5049809;28;37643;-78
2024/03/29 09:18:57;;;;;;;1.65;0.90;;;10.90;1.00;;;;;;5031958;28;39578;-78
2024/03/29 09:21:23;;;;;;;0.75;0.63;;;10.90;1.00;;;;;;5030913;28;37833;-77
2024/03/29 09:23:52;;;;;;;2.25;0.85;;;10.90;1.00;;;;;;5034589;28;37841;-79
2024/03/29 09:26:19;;;;;;;4.72;1.05;;;10.80;1.00;;;;;;5032911;28;39037;-78
2024/03/29 09:28:45;;;;;;;1.52;0.70;;;10.70;1.00;;;;;;5031117;28;39079;-77
2024/03/29 09:31:11;;;;;;;2.30;1.08;;;10.70;1.00;;;;;;5031170;28;38001;-77
2024/03/29 09:33:37;;;;;;;3.50;0.75;;;10.70;1.00;;;;;;5033448;28;38189;-78
2024/03/29 09:36:04;;;;;;;1.15;0.73;;;10.80;1.00;;;;;;5033233;28;39181;-78
2024/03/29 09:38:30;;;;;;;8.32;1.00;;;10.90;1.00;;;;;;5032254;28;39027;-78
2024/03/29 09:41:17;;;;;;;2.13;1.00;;;10.90;1.00;;;;;;5034127;28;36544;-78
2024/03/29 09:43:47;;;;;;;2.38;1.10;;;10.80;1.00;;;;;;5032795;28;47163;-77
2024/03/29 09:46:14;;;;;;;3.67;1.00;;;10.70;1.00;;;;;;5028839;28;39862;-79
2024/03/29 09:48:41;;;;;;;1.33;0.80;;;10.70;1.00;;;;;;5041126;28;39103;-77
2024/03/29 09:51:08;;;;;;;1.45;0.93;;;10.90;1.00;;;;;;5032844;28;39874;-77
2024/03/29 09:53:36;;;;;;;2.22;0.80;;;11.10;1.00;;;;;;5034644;28;36902;-78
2024/03/29 09:56:06;;;;;;;3.78;1.15;;;11.40;1.00;;;;;;5030219;28;40644;-77
2024/03/29 09:58:33;;;;;;;2.47;1.05;;;11.60;1.00;;;;;;5030743;28;38780;-77
2024/03/29 10:01:00;;;;;;;3.00;1.00;;;11.90;1.00;;;;;;5029474;28;38010;-78
2024/03/29 10:03:29;;;;;;;2.75;0.90;;;12.10;1.00;;;;;;5043430;28;38075;-78
2024/03/29 10:05:59;;;;;;;2.55;1.02;;;12.30;1.00;;;;;;5029951;28;38921;-77
2024/03/29 10:08:30;;;;;;;7.25;1.35;;;12.30;1.00;;;;;;5026029;28;38464;-77
2024/03/29 10:10:59;;;;;;;6.00;1.08;;;12.20;1.00;;;;;;5028158;28;37954;-77
2024/03/29 10:13:26;;;;;;;5.50;1.48;;;11.90;1.00;;;;;;5026003;28;38520;-77
2024/03/29 10:15:55;;;;;;;3.75;1.33;;;12.00;1.00;;;;;;5046156;28;39872;-78
2024/03/29 10:18:25;;;;;;;4.93;1.65;;;12.20;1.00;;;;;;5030765;28;38378;-78
2024/03/29 10:21:00;;;;;;;6.25;1.73;;;12.00;1.00;;;;;;5034710;28;39023;-78
2024/03/29 10:23:26;;;;;;;2.58;1.63;;;12.00;1.00;;;;;;5043529;28;35940;-77
2024/03/29 10:25:52;;;;;;;3.47;1.70;;;12.20;1.00;;;;;;5028309;28;39780;-78
2024/03/29 10:28:22;;;;;;;3.90;1.90;;;12.40;1.00;;;;;;5040676;28;39078;-78
2024/03/29 10:30:49;;;;;;;3.05;1.80;;;12.40;1.00;;;;;;5028295;28;38942;-78
2024/03/29 10:33:16;;;;;;;2.80;1.77;;;12.40;1.00;;;;;;5029247;28;37023;-78
2024/03/29 10:35:43;;;;;;;3.58;1.75;;;12.70;1.00;;;;;;5030138;28;39157;-78
2024/03/29 10:38:12;;;;;;;5.28;2.30;;;12.60;1.00;;;;;;5031571;28;39885;-78
2024/03/29 10:40:40;;;;;;;3.78;1.80;;;12.70;1.00;;;;;;5043551;28;37088;-78
2024/03/29 10:43:13;;;;;;;6.28;1.80;;;12.70;1.00;;;;;;5029606;28;37842;-78
2024/03/29 10:45:40;;;;;;;2.40;1.75;;;12.90;1.00;;;;;;5039760;28;36692;-78
2024/03/29 10:48:09;;;;;;;4.72;1.85;;;13.10;1.00;;;;;;5027448;28;38327;-77
2024/03/29 10:50:36;;;;;;;3.47;1.58;;;13.10;1.00;;;;;;5028142;28;39376;-78
2024/03/29 10:53:03;;;;;;;3.15;1.65;;;12.90;1.00;;;;;;5043331;28;38475;-77
2024/03/29 10:55:32;;;;;;;4.13;1.88;;;12.70;1.00;;;;;;5026223;28;39373;-77
2024/03/29 10:58:00;;;;;;;4.80;1.80;;;12.70;1.00;;;;;;5042019;28;38961;-78
2024/03/29 11:00:38;;;;;;;6.45;1.98;;;12.90;1.00;;;;;;5027490;28;48060;-78
2024/03/29 11:03:12;;;;;;;4.60;1.92;;;12.60;1.00;;;;;;5025117;28;35946;-78
2024/03/29 11:05:48;;;;;;;3.13;2.13;;;12.70;1.00;;;;;;5028479;28;38537;-77
2024/03/29 11:08:23;;;;;;;4.40;2.63;;;12.70;1.00;;;;;;5018869;28;38767;-78
2024/03/29 11:10:57;;;;;;;2.72;1.92;;;13.20;1.00;;;;;;5042895;28;36953;-78
2024/03/29 11:13:44;;;;;;;4.35;2.13;;;13.60;99.90;;;;;;5030345;28;37296;-78
2024/03/29 11:16:11;;;;;;;3.67;2.03;;;13.60;99.90;;;;;;5038498;28;38939;-78
2024/03/29 11:18:38;;;;;;;4.72;2.35;;;13.90;1.00;;;;;;5045457;28;39145;-80
2024/03/29 11:21:08;;;;;;;5.55;1.98;;;13.90;40.00;;;;;;5168997;22;38353;-80
2024/03/29 11:23:35;;;;;;;2.90;2.00;;;13.70;99.90;;;;;;5064605;28;37113;-79
2024/03/29 11:26:01;;;;;;;3.95;2.50;;;13.60;99.90;;;;;;5062647;28;37488;-77
2024/03/29 11:28:34;;;;;;;3.50;2.10;;;13.70;99.90;;;;;;5046410;28;47097;-77
2024/03/29 11:31:05;;;;;;;3.38;2.92;;;14.10;99.90;;;;;;5049932;28;39837;-77
2024/03/29 11:33:34;;;;;;;5.05;2.85;;;14.70;1.00;;;;;;5052910;28;48019;-76
2024/03/29 11:36:16;;;;;;;4.60;3.38;;;14.80;1.00;;;;;;5056094;28;39493;-77
2024/03/29 11:38:44;;;;;;;4.90;3.25;;;14.20;1.00;;;;;;5069884;28;47344;-77
2024/03/29 11:41:13;;;;;;;5.25;3.42;;;13.80;88.60;;;;;;5056004;28;37568;-78
2024/03/29 11:43:40;;;;;;;5.50;3.22;;;13.80;1.00;;;;;;5059343;28;37925;-78
2024/03/29 11:46:08;;;;;;;4.57;4.10;;;13.80;1.00;;;;;;5060101;28;39325;-76
2024/03/29 11:48:35;;;;;;;5.75;4.47;;;13.70;1.00;;;;;;5050482;28;39628;-78
2024/03/29 11:51:04;;;;;;;4.40;4.00;;;13.70;1.00;;;;;;5051614;28;36958;-77
2024/03/29 11:53:31;;;;;;;4.60;4.20;;;13.80;30.00;;;;;;5072583;28;36466;-77
2024/03/29 11:56:01;;;;;;;5.68;4.57;;;14.20;1.00;;;;;;5059352;28;38081;-77
2024/03/29 11:58:28;;;;;;;4.05;3.53;;;13.90;1.00;;;;;;5051517;28;46606;-77
2024/03/29 12:00:56;;;;;;;6.05;3.88;;;14.30;1.00;;;;;;5056567;28;38529;-76
2024/03/29 12:03:25;;;;;;;3.70;3.20;;;14.40;1.00;;;;;;5055858;28;37369;-75
2024/03/29 12:05:54;;;;;;;4.43;2.97;;;14.70;99.90;;;;;;5055983;28;38793;-76
2024/03/29 12:08:21;;;;;;;4.75;2.75;;;14.20;1.00;;;;;;5049053;28;37366;-76
2024/03/29 12:10:47;;;;;;;3.15;2.83;;;14.20;1.00;;;;;;5049548;28;37577;-75
2024/03/29 12:13:16;;;;;;;3.70;2.97;;;14.50;99.90;;;;;;5050499;28;35692;-76
2024/03/29 12:15:44;;;;;;;3.30;2.97;;;14.30;1.00;;;;;;5049782;28;38869;-75
2024/03/29 12:18:12;;;;;;;5.60;2.88;;;14.20;99.90;;;;;;5046137;28;36975;-76
2024/03/29 12:20:41;;;;;;;5.10;3.00;;;14.10;1.00;;;;;;5051724;28;38967;-75
2024/03/29 12:23:09;;;;;;;4.30;2.63;;;14.10;99.90;;;;;;5070579;28;38486;-76
2024/03/29 12:25:37;;;;;;;6.78;2.45;;;14.20;99.90;;;;;;5055739;28;39317;-76
2024/03/29 12:28:04;;;;;;;3.47;2.15;;;14.20;1.00;;;;;;5053308;28;37139;-76
2024/03/29 12:30:31;;;;;;;4.07;2.40;;;14.30;11.30;;;;;;5054562;28;37954;-76
2024/03/29 12:33:01;;;;;;;4.28;1.88;;;14.50;1.00;;;;;;5053531;28;36003;-77
2024/03/29 12:35:29;;;;;;;4.97;2.00;;;14.90;1.00;;;;;;5056205;28;46811;-76
2024/03/29 12:38:01;;;;;;;4.30;1.77;;;14.70;1.00;;;;;;5051690;28;37438;-76
2024/03/29 12:40:32;;;;;;;2.28;1.75;;;15.00;1.00;;;;;;5057310;28;48693;-75
2024/03/29 12:42:58;;;;;;;4.30;1.80;;;15.10;99.90;;;;;;5048403;28;37878;-76
2024/03/29 12:45:26;;;;;;;4.68;2.25;;;15.40;1.00;;;;;;5053316;28;39243;-75
2024/03/29 12:47:52;;;;;;;4.50;2.03;;;14.60;1.00;;;;;;5056286;28;37723;-76
2024/03/29 12:50:30;;;;;;;4.97;1.98;;;14.60;99.90;;;;;;5056135;28;36442;-76
2024/03/29 12:52:58;;;;;;;7.72;1.80;;;14.70;1.00;;;;;;5056696;28;36403;-76
2024/03/29 12:55:28;;;;;;;2.25;1.38;;;14.60;1.00;;;;;;5054078;28;38116;-75
2024/03/29 12:57:54;;;;;;;7.13;1.92;;;14.70;1.00;;;;;;5049888;28;39539;-76
2024/03/29 13:00:20;;;;;;;4.43;1.67;;;14.90;99.90;;;;;;5047695;28;38497;-76
2024/03/29 13:02:47;;;;;;;5.05;1.52;;;14.70;1.00;;;;;;5050998;28;37404;-76
2024/03/29 13:05:13;;;;;;;2.60;1.42;;;14.80;1.00;;;;;;5051523;28;38894;-76
2024/03/29 13:07:39;;;;;;;5.47;1.70;;;15.20;1.00;;;;;;5050902;28;37993;-77